Time;durP1;ratioP1;P1;durP2;ratioP2;P2;SDS_P1;SDS_P2;PMS_P1;PMS_P2;Temp;Humidity;BMP_temperature;BMP_pressure;BME280_temperature;BME280_humidity;BME280_pressure;Samples;Min_cycle;Max_cycle;Signal;HPM_P1;HPM_P2
2021/11/02 00:01:52;;;;;;;0.20;0.20;;;8.40;99.90;;;;;;5036352;28;20479;-67
2021/11/02 00:04:18;;;;;;;0.60;0.60;;;8.30;99.90;;;;;;5035761;28;20174;-67
2021/11/02 00:06:43;;;;;;;0.20;0.20;;;8.30;99.90;;;;;;5035727;28;20618;-67
2021/11/02 00:09:13;;;;;;;0.80;0.60;;;8.20;99.90;;;;;;5035545;28;20180;-67
2021/11/02 00:11:39;;;;;;;0.20;0.20;;;8.30;99.90;;;;;;5035707;28;20336;-69
2021/11/02 00:14:08;;;;;;;0.20;0.20;;;8.20;99.90;;;;;;5035603;28;20499;-70
2021/11/02 00:16:58;;;;;;;0.88;0.88;;;8.30;99.90;;;;;;5034254;28;20510;-69
2021/11/02 00:19:26;;;;;;;0.20;0.20;;;8.20;99.90;;;;;;5018001;28;20178;-67
2021/11/02 00:21:54;;;;;;;0.20;0.20;;;8.10;99.90;;;;;;5035675;28;20255;-67
2021/11/02 00:26:57;;;;;;;0.30;0.30;;;8.00;99.90;;;;;;5035723;28;20239;-68
2021/11/02 00:29:23;;;;;;;0.93;0.60;;;7.90;99.90;;;;;;5035472;28;20665;-66
2021/11/02 00:31:49;;;;;;;0.50;0.50;;;7.90;99.90;;;;;;5035459;28;20598;-68
2021/11/02 00:34:15;;;;;;;0.20;0.20;;;7.90;99.90;;;;;;5035455;28;20209;-65
2021/11/02 00:36:41;;;;;;;0.20;0.20;;;7.80;99.90;;;;;;5035201;28;20221;-65
2021/11/02 00:39:06;;;;;;;0.20;0.20;;;7.80;99.90;;;;;;5015934;28;20187;-65
2021/11/02 00:41:32;;;;;;;0.57;0.30;;;7.80;99.90;;;;;;5035442;28;20181;-66
2021/11/02 00:43:58;;;;;;;0.20;0.20;;;7.80;99.90;;;;;;5035023;28;20182;-67
2021/11/02 00:46:31;;;;;;;0.20;0.20;;;7.70;99.90;;;;;;5034905;28;20243;-69
2021/11/02 00:48:58;;;;;;;0.20;0.20;;;7.70;99.90;;;;;;5017062;28;20698;-69
2021/11/02 00:51:24;;;;;;;0.20;0.20;;;7.70;99.90;;;;;;5034798;28;20273;-67
2021/11/02 00:53:49;;;;;;;1.03;1.00;;;7.70;99.90;;;;;;5034771;28;20213;-67
2021/11/02 00:56:15;;;;;;;0.20;0.20;;;7.60;99.90;;;;;;5034718;28;20212;-67
2021/11/02 00:58:41;;;;;;;0.20;0.20;;;7.60;99.90;;;;;;5034227;28;20662;-65
2021/11/02 01:01:06;;;;;;;0.20;0.20;;;7.70;99.90;;;;;;5034520;28;20504;-65
2021/11/02 01:03:33;;;;;;;0.20;0.20;;;7.70;99.90;;;;;;5017209;28;20188;-69
2021/11/02 01:05:59;;;;;;;0.30;0.20;;;7.80;99.90;;;;;;5034527;28;20170;-67
2021/11/02 01:08:25;;;;;;;0.20;0.20;;;7.70;99.90;;;;;;5016922;28;20185;-66
2021/11/02 01:10:52;;;;;;;0.20;0.20;;;7.70;99.90;;;;;;5017101;28;20180;-68
2021/11/02 01:13:18;;;;;;;0.20;0.20;;;7.70;99.90;;;;;;5017117;28;20657;-69
2021/11/02 01:15:45;;;;;;;0.30;0.30;;;7.70;99.90;;;;;;5016459;28;20590;-67
2021/11/02 01:18:11;;;;;;;0.20;0.20;;;7.70;99.90;;;;;;5033989;28;20644;-66
2021/11/02 01:20:38;;;;;;;0.20;0.20;;;7.70;99.90;;;;;;5034391;28;20228;-69
2021/11/02 01:23:03;;;;;;;0.20;0.20;;;7.80;99.90;;;;;;5034292;28;20485;-69
2021/11/02 01:25:29;;;;;;;0.20;0.20;;;7.80;99.90;;;;;;5034450;28;20269;-65
2021/11/02 01:27:54;;;;;;;0.20;0.20;;;7.90;99.90;;;;;;5034235;28;20195;-65
2021/11/02 01:30:20;;;;;;;0.20;0.20;;;7.80;99.90;;;;;;5034153;28;20181;-65
2021/11/02 01:32:46;;;;;;;0.20;0.20;;;7.80;99.90;;;;;;5034212;28;20604;-69
2021/11/02 01:35:14;;;;;;;0.20;0.20;;;7.80;99.90;;;;;;5034242;28;20193;-66
2021/11/02 01:37:39;;;;;;;0.20;0.20;;;7.80;99.90;;;;;;5033818;28;20505;-65
2021/11/02 01:40:12;;;;;;;0.20;0.20;;;7.80;99.90;;;;;;5016059;28;20209;-65
2021/11/02 01:42:38;;;;;;;1.00;1.00;;;7.70;99.90;;;;;;5034176;28;20180;-67
2021/11/02 01:45:07;;;;;;;0.20;0.20;;;7.70;99.90;;;;;;5034032;28;20561;-67
2021/11/02 01:47:39;;;;;;;0.20;0.20;;;7.70;99.90;;;;;;5016327;28;20177;-65
2021/11/02 01:50:05;;;;;;;0.20;0.20;;;7.70;99.90;;;;;;5033594;28;20243;-65
2021/11/02 01:52:33;;;;;;;0.20;0.20;;;7.70;99.90;;;;;;5033139;28;20570;-66
2021/11/02 01:54:58;;;;;;;0.20;0.20;;;7.80;99.90;;;;;;5033626;28;20177;-65
2021/11/02 01:57:24;;;;;;;0.20;0.20;;;7.80;99.90;;;;;;5033744;28;20668;-69
2021/11/02 01:59:51;;;;;;;0.20;0.20;;;7.70;99.90;;;;;;5033303;28;20176;-69
2021/11/02 02:02:33;;;;;;;0.20;0.20;;;7.80;99.90;;;;;;5016144;28;20582;-69
2021/11/02 02:05:00;;;;;;;0.20;0.20;;;7.80;99.90;;;;;;5016022;28;20551;-65
2021/11/02 02:07:41;;;;;;;0.20;0.20;;;7.80;99.90;;;;;;5033676;28;20633;-65
2021/11/02 02:10:20;;;;;;;0.20;0.20;;;7.80;99.90;;;;;;5033308;28;20184;-65
2021/11/02 02:12:57;;;;;;;0.20;0.20;;;7.90;99.90;;;;;;5033393;28;20197;-65
2021/11/02 02:15:39;;;;;;;0.30;0.30;;;7.80;99.90;;;;;;5016052;28;20526;-66
2021/11/02 02:18:46;;;;;;;0.20;0.20;;;7.80;99.90;;;;;;5015711;28;20213;-69
2021/11/02 02:21:31;;;;;;;0.20;0.20;;;7.80;99.90;;;;;;4953567;29;20460;-66
2021/11/02 02:24:18;;;;;;;0.20;0.20;;;7.80;99.90;;;;;;5027208;28;20189;-66
2021/11/02 02:27:03;;;;;;;0.82;0.45;;;7.80;99.90;;;;;;5033454;28;20688;-67
2021/11/02 02:29:33;;;;;;;0.20;0.20;;;7.80;99.90;;;;;;5033142;28;20598;-67
2021/11/02 02:32:01;;;;;;;0.20;0.20;;;7.70;99.90;;;;;;5033361;28;20173;-67
2021/11/02 02:34:26;;;;;;;0.20;0.20;;;7.80;99.90;;;;;;5033232;28;20208;-67
2021/11/02 02:36:53;;;;;;;0.20;0.20;;;7.80;99.90;;;;;;5033386;28;20623;-67
2021/11/02 02:39:21;;;;;;;0.20;0.20;;;7.80;99.90;;;;;;5033162;28;20497;-66
2021/11/02 02:41:48;;;;;;;0.45;0.45;;;7.90;99.90;;;;;;5033255;28;20235;-66
2021/11/02 02:44:15;;;;;;;0.20;0.20;;;7.90;99.90;;;;;;5033335;28;20209;-66
2021/11/02 02:46:41;;;;;;;0.20;0.20;;;7.80;99.90;;;;;;5033168;28;20180;-69
2021/11/02 02:49:09;;;;;;;0.20;0.20;;;7.80;99.90;;;;;;5032923;28;20177;-68
2021/11/02 02:51:39;;;;;;;0.20;0.17;;;7.80;99.90;;;;;;5033132;28;20174;-68
2021/11/02 02:54:05;;;;;;;0.20;0.20;;;7.70;99.90;;;;;;5033168;28;20173;-67
2021/11/02 02:56:33;;;;;;;0.20;0.20;;;7.70;99.90;;;;;;5015757;28;20177;-65
2021/11/02 02:59:03;;;;;;;0.20;0.10;;;7.70;99.90;;;;;;5015459;28;20217;-65
2021/11/02 03:01:30;;;;;;;0.20;0.20;;;7.80;99.90;;;;;;5032985;28;20174;-65
2021/11/02 03:04:18;;;;;;;0.30;0.30;;;7.80;99.90;;;;;;5033016;28;20492;-65
2021/11/02 03:06:47;;;;;;;0.22;0.20;;;7.60;99.90;;;;;;5019161;28;20235;-65
2021/11/02 03:09:13;;;;;;;0.20;0.20;;;7.60;99.90;;;;;;5036510;28;20181;-65
2021/11/02 03:11:41;;;;;;;0.20;0.20;;;7.60;99.90;;;;;;5036512;28;20204;-65
2021/11/02 03:14:10;;;;;;;0.47;0.30;;;7.50;99.90;;;;;;5036577;28;20450;-65
2021/11/02 03:49:35;;;;;;;0.20;0.20;;;7.50;99.90;;;;;;5036010;28;20535;-65
2021/11/02 03:54:24;;;;;;;0.20;0.20;;;7.60;99.90;;;;;;5018451;28;20189;-65
2021/11/02 03:54:50;;;;;;;0.20;0.20;;;7.50;99.90;;;;;;5035692;28;20177;-65
2021/11/02 03:57:35;;;;;;;0.20;0.20;;;7.50;99.90;;;;;;5035726;28;20538;-65
2021/11/02 04:25:17;;;;;;;0.20;0.20;;;7.10;99.90;;;;;;5035322;28;20198;-65
2021/11/02 05:47:19;;;;;;;0.30;0.30;;;7.60;99.90;;;;;;5034140;28;20518;-65
2021/11/02 05:50:03;;;;;;;0.20;0.20;;;7.40;99.90;;;;;;5033587;28;20251;-65
2021/11/02 05:55:28;;;;;;;0.60;0.60;;;7.50;99.90;;;;;;5034050;28;20209;-65
2021/11/02 05:58:08;;;;;;;0.20;0.20;;;7.30;99.90;;;;;;5033095;28;20212;-65
2021/11/02 06:00:40;;;;;;;0.20;0.20;;;7.30;99.90;;;;;;5033998;28;20176;-65
2021/11/02 06:05:49;;;;;;;0.20;0.20;;;7.30;99.90;;;;;;5033754;28;20255;-65
2021/11/02 06:11:26;;;;;;;0.20;0.20;;;7.00;99.90;;;;;;5033723;28;20208;-65
2021/11/02 06:23:24;;;;;;;0.20;0.20;;;7.00;99.90;;;;;;5016216;28;20220;-65
2021/11/02 06:28:30;;;;;;;0.20;0.20;;;7.00;99.90;;;;;;5033345;28;20618;-65
2021/11/02 06:31:12;;;;;;;0.20;0.20;;;6.90;99.90;;;;;;5033329;28;20173;-65
2021/11/02 06:44:19;;;;;;;0.20;0.20;;;6.90;99.90;;;;;;5037005;28;20188;-69
2021/11/02 06:52:37;;;;;;;0.60;0.60;;;7.10;99.90;;;;;;5034948;28;20633;-69
2021/11/02 07:00:57;;;;;;;10.43;4.15;;;7.20;99.90;;;;;;5025584;28;20205;-70
2021/11/02 07:18:01;;;;;;;0.30;0.30;;;7.30;99.90;;;;;;5035986;28;20669;-69
2021/11/02 07:23:02;;;;;;;0.20;0.20;;;7.40;99.90;;;;;;5036247;28;20188;-70
2021/11/02 07:28:12;;;;;;;0.20;0.17;;;7.60;99.90;;;;;;5055547;28;20216;-67
2021/11/02 08:48:56;;;;;;;0.30;0.20;;;10.70;1.00;;;;;;5034530;28;20212;-68
2021/11/02 08:51:23;;;;;;;1.50;0.40;;;10.70;1.00;;;;;;5016664;28;20189;-67
2021/11/02 08:53:50;;;;;;;0.20;0.20;;;10.60;1.00;;;;;;5033871;28;20232;-67
2021/11/02 08:56:17;;;;;;;1.65;1.65;;;10.80;1.00;;;;;;5034445;28;20200;-70
2021/11/02 08:58:45;;;;;;;0.40;0.30;;;11.10;1.00;;;;;;5033757;28;20271;-72
2021/11/02 09:01:12;;;;;;;0.30;0.20;;;11.30;1.00;;;;;;5034002;28;20181;-73
2021/11/02 09:03:46;;;;;;;0.30;0.20;;;11.50;1.00;;;;;;5034232;28;20180;-73
2021/11/02 09:06:15;;;;;;;0.90;0.90;;;11.70;1.00;;;;;;5016714;28;20665;-71
2021/11/02 09:08:54;;;;;;;1.30;1.30;;;11.70;99.90;;;;;;5033544;28;20182;-71
2021/11/02 09:11:21;;;;;;;0.47;0.47;;;11.60;99.90;;;;;;5016197;28;20258;-70
2021/11/02 09:13:55;;;;;;;0.70;0.43;;;11.60;1.00;;;;;;5033863;28;20209;-71
2021/11/02 09:16:23;;;;;;;1.40;1.30;;;11.70;1.00;;;;;;5017026;28;20207;-69
2021/11/02 09:18:49;;;;;;;2.10;1.70;;;11.30;1.00;;;;;;5016512;28;20525;-70
2021/11/02 09:21:16;;;;;;;0.30;0.20;;;10.90;1.00;;;;;;5017454;28;20193;-69
2021/11/02 09:23:55;;;;;;;0.30;0.20;;;10.80;1.00;;;;;;5017008;28;20611;-69
2021/11/02 09:26:23;;;;;;;0.73;0.73;;;11.00;1.00;;;;;;5017277;28;20178;-72
2021/11/02 09:28:49;;;;;;;0.30;0.20;;;11.20;1.00;;;;;;5016409;28;20185;-72
2021/11/02 09:31:20;;;;;;;0.30;0.20;;;11.60;1.00;;;;;;5033412;28;20610;-72
2021/11/02 09:33:46;;;;;;;0.30;0.20;;;11.80;1.00;;;;;;5033847;28;20169;-71
2021/11/02 09:36:18;;;;;;;0.30;0.20;;;12.00;1.00;;;;;;5034179;28;20177;-69
2021/11/02 09:38:50;;;;;;;0.30;0.20;;;12.30;1.00;;;;;;5033111;28;20201;-70
2021/11/02 09:41:43;;;;;;;0.30;0.20;;;12.30;99.90;;;;;;5033665;28;20184;-67
2021/11/02 09:44:39;;;;;;;0.30;0.20;;;12.70;99.90;;;;;;5033918;28;20173;-69
2021/11/02 09:47:47;;;;;;;0.30;0.20;;;12.80;99.90;;;;;;5033831;28;20589;-68
2021/11/02 09:50:50;;;;;;;0.60;0.60;;;13.20;99.90;;;;;;5033618;28;20185;-69
2021/11/02 09:53:46;;;;;;;0.70;0.70;;;13.70;99.90;;;;;;5033480;28;20184;-69
2021/11/02 09:56:14;;;;;;;0.30;0.20;;;13.90;99.90;;;;;;5016457;28;20280;-69
2021/11/02 09:59:04;;;;;;;0.30;0.20;;;14.10;99.90;;;;;;5033049;28;20654;-68
2021/11/02 10:01:32;;;;;;;0.30;0.20;;;14.20;1.00;;;;;;5033506;28;20177;-68
2021/11/02 10:04:11;;;;;;;0.47;0.40;;;14.00;1.00;;;;;;5033038;28;20489;-69
2021/11/02 10:07:25;;;;;;;0.30;0.20;;;13.80;1.00;;;;;;5016150;28;20191;-69
2021/11/02 10:09:56;;;;;;;0.30;0.20;;;13.40;99.90;;;;;;5033025;28;20328;-72
2021/11/02 10:12:57;;;;;;;0.30;0.20;;;13.60;1.00;;;;;;5033791;28;20181;-67
2021/11/02 10:16:00;;;;;;;0.40;0.30;;;13.70;1.00;;;;;;5035612;28;20201;-69
2021/11/02 10:18:52;;;;;;;1.15;0.68;;;13.80;99.90;;;;;;4995035;28;20239;-69
2021/11/02 10:21:38;;;;;;;0.75;0.75;;;13.70;1.00;;;;;;5039929;28;20212;-68
2021/11/02 10:24:45;;;;;;;0.30;0.20;;;13.80;1.00;;;;;;5039737;28;20703;-69
2021/11/02 10:27:16;;;;;;;0.30;0.20;;;13.30;99.90;;;;;;5013533;28;20626;-68
2021/11/02 10:30:02;;;;;;;0.30;0.20;;;13.40;1.00;;;;;;5039702;28;20319;-69
2021/11/02 10:32:29;;;;;;;0.30;0.20;;;13.50;1.00;;;;;;5022185;28;20211;-69
2021/11/02 10:35:01;;;;;;;0.30;0.20;;;13.80;99.90;;;;;;5021814;28;20185;-70
2021/11/02 10:38:01;;;;;;;0.40;0.40;;;14.20;99.90;;;;;;5039780;28;20211;-68
2021/11/02 10:40:45;;;;;;;0.40;0.20;;;14.30;1.00;;;;;;5039657;28;20205;-69
2021/11/02 10:43:34;;;;;;;0.30;0.20;;;14.40;1.00;;;;;;5040400;28;20165;-69
2021/11/02 10:46:09;;;;;;;0.30;0.20;;;14.60;1.00;;;;;;5039812;28;20180;-69
2021/11/02 10:48:48;;;;;;;0.30;0.10;;;14.60;1.00;;;;;;5040224;28;20189;-69
2021/11/02 10:51:37;;;;;;;0.40;0.20;;;14.90;1.00;;;;;;5039603;28;20192;-69
2021/11/02 10:54:05;;;;;;;0.30;0.10;;;14.90;99.90;;;;;;5039957;28;20204;-69
2021/11/02 10:56:49;;;;;;;0.30;0.20;;;15.20;99.90;;;;;;5022536;28;20216;-69
2021/11/02 10:59:16;;;;;;;0.30;0.10;;;15.00;1.00;;;;;;5039499;28;20395;-69
2021/11/02 11:01:44;;;;;;;0.30;0.10;;;14.80;99.90;;;;;;5021832;28;20195;-69
2021/11/02 11:04:13;;;;;;;0.30;0.20;;;14.90;99.90;;;;;;5039360;28;20186;-69
2021/11/02 11:06:42;;;;;;;0.85;0.85;;;14.80;1.00;;;;;;5039319;28;20166;-68
2021/11/02 11:09:12;;;;;;;0.30;0.20;;;15.00;1.00;;;;;;5021412;28;20642;-68
2021/11/02 11:11:43;;;;;;;2.05;1.95;;;14.90;99.90;;;;;;5039676;28;20650;-68
2021/11/02 11:14:14;;;;;;;0.30;0.10;;;14.70;1.00;;;;;;5039389;28;20200;-67
2021/11/02 11:16:46;;;;;;;0.30;0.20;;;14.40;1.00;;;;;;5039173;28;20311;-66
2021/11/02 11:19:27;;;;;;;0.50;0.40;;;14.10;99.90;;;;;;5039285;28;20654;-67
2021/11/02 11:21:55;;;;;;;0.50;0.50;;;13.80;1.00;;;;;;5039635;28;20614;-69
2021/11/02 11:24:34;;;;;;;0.30;0.20;;;13.80;74.40;;;;;;5037518;28;20288;-65
2021/11/02 11:27:08;;;;;;;0.40;0.30;;;14.20;99.90;;;;;;5034427;28;20569;-65
2021/11/02 11:29:49;;;;;;;0.50;0.30;;;13.90;99.90;;;;;;5036139;28;20561;-65
2021/11/02 11:32:17;;;;;;;0.60;0.40;;;13.70;99.90;;;;;;5035896;28;20212;-73
2021/11/02 11:34:51;;;;;;;0.30;0.20;;;13.60;99.90;;;;;;5019942;28;20186;-72
2021/11/02 11:37:21;;;;;;;0.30;0.20;;;13.60;99.90;;;;;;5036220;28;20491;-72
2021/11/02 11:39:47;;;;;;;0.30;0.20;;;13.70;8.30;;;;;;5036306;28;20193;-72
2021/11/02 11:42:18;;;;;;;0.30;0.20;;;13.40;1.00;;;;;;5018587;28;20512;-72
2021/11/02 11:44:50;;;;;;;0.30;0.20;;;13.30;94.70;;;;;;5036046;28;20192;-72
2021/11/02 11:47:23;;;;;;;0.32;0.20;;;13.50;1.00;;;;;;5036119;28;20267;-72
2021/11/02 11:49:49;;;;;;;0.30;0.20;;;13.50;99.90;;;;;;5018009;28;20323;-71
2021/11/02 11:52:32;;;;;;;0.30;0.10;;;13.70;99.90;;;;;;5018846;28;20523;-70
2021/11/02 11:54:58;;;;;;;1.52;1.42;;;13.70;1.00;;;;;;5036110;28;20203;-69
2021/11/02 11:57:42;;;;;;;0.30;0.20;;;13.50;99.90;;;;;;5036042;28;20181;-70
2021/11/02 12:00:19;;;;;;;0.40;0.30;;;13.80;1.00;;;;;;5044607;28;20238;-71
2021/11/02 12:03:04;;;;;;;0.50;0.40;;;13.70;99.90;;;;;;5055546;28;20180;-70
2021/11/02 12:05:32;;;;;;;0.30;0.20;;;13.60;1.00;;;;;;5025097;28;20204;-71
2021/11/02 12:08:23;;;;;;;0.30;0.20;;;13.70;1.00;;;;;;5034778;28;20174;-73
2021/11/02 12:10:59;;;;;;;0.30;0.20;;;13.80;1.00;;;;;;5015408;28;20178;-72
2021/11/02 12:13:29;;;;;;;3.28;2.08;;;13.60;99.90;;;;;;5015653;28;20328;-73
2021/11/02 12:16:13;;;;;;;0.30;0.20;;;13.90;1.00;;;;;;5015722;28;20182;-72
2021/11/02 12:18:42;;;;;;;5.30;1.15;;;13.90;1.00;;;;;;5014514;28;20256;-73
2021/11/02 12:21:18;;;;;;;0.40;0.20;;;14.00;65.70;;;;;;4998473;28;20568;-69
2021/11/02 12:23:47;;;;;;;0.30;0.17;;;13.90;1.00;;;;;;5015105;28;20185;-69
2021/11/02 12:26:13;;;;;;;0.30;0.15;;;13.70;1.00;;;;;;4997896;28;20190;-68
2021/11/02 12:28:46;;;;;;;0.60;0.53;;;13.60;1.00;;;;;;5014672;28;20214;-70
2021/11/02 12:31:19;;;;;;;1.23;0.73;;;13.80;1.00;;;;;;5014688;28;20437;-72
2021/11/02 12:33:51;;;;;;;0.30;0.20;;;13.90;99.90;;;;;;5022654;28;20235;-70
2021/11/02 12:36:22;;;;;;;0.40;0.20;;;13.90;1.00;;;;;;5016826;28;20231;-71
2021/11/02 12:38:48;;;;;;;0.40;0.30;;;14.10;1.00;;;;;;5034063;28;20205;-69
2021/11/02 12:41:28;;;;;;;1.85;0.60;;;14.60;1.00;;;;;;5016825;28;20236;-68
2021/11/02 12:44:12;;;;;;;0.30;0.20;;;14.60;55.00;;;;;;5035051;28;20173;-68
2021/11/02 12:46:41;;;;;;;0.30;0.20;;;14.60;1.00;;;;;;5034674;28;20174;-68
2021/11/02 12:49:08;;;;;;;0.30;0.20;;;14.60;1.00;;;;;;5033987;28;20271;-68
2021/11/02 12:51:40;;;;;;;0.30;0.10;;;14.50;99.90;;;;;;5034685;28;20516;-70
2021/11/02 12:54:10;;;;;;;1.25;1.00;;;14.70;1.00;;;;;;5034718;28;20178;-69
2021/11/02 12:56:37;;;;;;;0.40;0.20;;;14.60;1.00;;;;;;5017046;28;20182;-70
2021/11/02 12:59:21;;;;;;;0.30;0.20;;;14.50;1.00;;;;;;5034120;28;20278;-69
2021/11/02 13:01:50;;;;;;;0.30;0.10;;;14.60;1.00;;;;;;5014546;28;20615;-69
2021/11/02 13:04:17;;;;;;;0.40;0.20;;;14.60;1.00;;;;;;5016738;28;20182;-70
2021/11/02 13:06:48;;;;;;;1.20;1.13;;;14.40;1.00;;;;;;5034142;28;20227;-69
2021/11/02 13:09:18;;;;;;;0.40;0.28;;;14.60;1.00;;;;;;5033961;28;20196;-66
2021/11/02 13:12:05;;;;;;;0.82;0.82;;;14.70;1.00;;;;;;5033835;28;20595;-67
2021/11/02 13:14:42;;;;;;;0.30;0.10;;;14.60;1.00;;;;;;5015981;28;20209;-73
2021/11/02 13:17:10;;;;;;;0.82;0.55;;;14.80;1.00;;;;;;5034086;28;20177;-74
2021/11/02 13:19:38;;;;;;;0.40;0.20;;;14.90;99.90;;;;;;5016188;28;20500;-72
2021/11/02 13:22:07;;;;;;;0.30;0.20;;;15.00;99.90;;;;;;5033823;28;20181;-68
2021/11/02 13:24:33;;;;;;;0.68;0.65;;;14.90;99.90;;;;;;5033748;28;20517;-68
2021/11/02 13:26:59;;;;;;;0.30;0.20;;;14.70;99.90;;;;;;5033772;28;20192;-67
2021/11/02 13:29:27;;;;;;;0.30;0.20;;;14.90;1.00;;;;;;5033589;28;20555;-69
2021/11/02 13:32:00;;;;;;;0.40;0.20;;;14.80;99.90;;;;;;5033702;28;20231;-68
2021/11/02 13:34:36;;;;;;;0.30;0.20;;;14.60;1.00;;;;;;5033512;28;20641;-70
2021/11/02 13:37:03;;;;;;;0.30;0.20;;;14.40;1.00;;;;;;5033226;28;20181;-70
2021/11/02 13:39:29;;;;;;;0.30;0.20;;;14.40;1.00;;;;;;5033094;28;20263;-70
2021/11/02 13:41:56;;;;;;;1.23;1.13;;;14.20;1.00;;;;;;5033256;28;20221;-70
2021/11/02 13:44:24;;;;;;;1.80;1.70;;;14.10;1.00;;;;;;5033309;28;20942;-70
2021/11/02 13:46:56;;;;;;;0.30;0.20;;;14.10;1.00;;;;;;5033133;28;20190;-70
2021/11/02 13:49:22;;;;;;;0.30;0.17;;;14.30;1.00;;;;;;5032217;28;20185;-70
2021/11/02 13:51:51;;;;;;;0.40;0.38;;;14.40;1.00;;;;;;5015875;28;20196;-71
2021/11/02 13:54:17;;;;;;;0.30;0.20;;;14.20;12.40;;;;;;5033215;28;20201;-69
2021/11/02 13:56:44;;;;;;;0.30;0.20;;;14.20;99.90;;;;;;5032849;28;20271;-70
2021/11/02 13:59:11;;;;;;;0.30;0.20;;;14.40;99.90;;;;;;5033104;28;20470;-70
2021/11/02 14:01:40;;;;;;;0.30;0.20;;;14.50;1.00;;;;;;5053082;28;20266;-68
2021/11/02 14:04:23;;;;;;;0.30;0.17;;;14.00;1.00;;;;;;5052402;28;20176;-70
2021/11/02 14:06:52;;;;;;;0.30;0.10;;;13.90;99.90;;;;;;5032255;28;20255;-69
2021/11/02 14:09:25;;;;;;;0.30;0.20;;;13.90;99.90;;;;;;5031127;28;20190;-70
2021/11/02 14:11:51;;;;;;;0.30;0.20;;;14.10;99.90;;;;;;5007013;28;20196;-70
2021/11/02 14:14:30;;;;;;;0.90;0.70;;;13.90;1.00;;;;;;5032841;28;20197;-68
2021/11/02 14:16:57;;;;;;;0.30;0.20;;;13.70;1.00;;;;;;5015471;28;20211;-69
2021/11/02 14:19:35;;;;;;;0.30;0.20;;;13.80;99.90;;;;;;5033230;28;20216;-69
2021/11/02 14:22:06;;;;;;;0.30;0.17;;;13.90;1.00;;;;;;5015377;28;20614;-69
2021/11/02 14:24:32;;;;;;;5.03;4.72;;;14.00;99.90;;;;;;5032850;28;20169;-68
2021/11/02 14:26:59;;;;;;;0.30;0.20;;;14.20;1.00;;;;;;5032872;28;20279;-68
2021/11/02 14:30:03;;;;;;;0.30;0.22;;;14.20;1.00;;;;;;5032520;28;20177;-69
2021/11/02 14:32:38;;;;;;;0.30;0.20;;;13.90;1.00;;;;;;4952363;29;20315;-71
2021/11/02 14:35:04;;;;;;;0.30;0.20;;;13.90;1.00;;;;;;4936684;29;20299;-71
2021/11/02 14:37:47;;;;;;;0.95;0.95;;;14.00;1.00;;;;;;4978442;28;20197;-70
2021/11/02 14:40:25;;;;;;;0.40;0.30;;;14.20;1.00;;;;;;5014972;28;20169;-68
2021/11/02 14:42:54;;;;;;;0.30;0.20;;;14.20;99.90;;;;;;5032761;28;20277;-67
2021/11/02 14:45:41;;;;;;;0.50;0.50;;;13.90;1.00;;;;;;5032871;28;20615;-67
2021/11/02 14:48:25;;;;;;;0.30;0.20;;;13.70;99.90;;;;;;5031783;28;20204;-69
2021/11/02 14:50:52;;;;;;;0.30;0.10;;;13.80;27.70;;;;;;5032566;28;20660;-69
2021/11/02 14:53:32;;;;;;;0.30;0.20;;;14.00;1.00;;;;;;5032929;28;20259;-70
2021/11/02 14:56:11;;;;;;;0.30;0.20;;;14.10;99.90;;;;;;5031884;28;20196;-69
2021/11/02 14:58:42;;;;;;;0.30;0.20;;;14.00;1.00;;;;;;5031725;28;20213;-69
2021/11/02 15:01:11;;;;;;;0.30;0.10;;;13.90;1.00;;;;;;5033932;28;20185;-69
2021/11/02 15:03:38;;;;;;;0.30;0.10;;;13.60;57.60;;;;;;5056607;28;20191;-68
2021/11/02 15:06:07;;;;;;;0.30;0.20;;;13.60;99.90;;;;;;5039323;28;20251;-70
2021/11/02 15:08:35;;;;;;;0.30;0.10;;;13.60;99.90;;;;;;5036424;28;20268;-67
2021/11/02 15:11:06;;;;;;;1.50;1.40;;;13.50;1.00;;;;;;5036745;28;20177;-67
2021/11/02 15:13:32;;;;;;;0.30;0.10;;;13.50;1.00;;;;;;5036418;28;20590;-67
2021/11/02 15:16:01;;;;;;;0.30;0.20;;;13.50;1.00;;;;;;5036476;28;20209;-67
2021/11/02 15:18:38;;;;;;;0.30;0.20;;;13.50;1.00;;;;;;5018488;28;20452;-67
2021/11/02 15:21:04;;;;;;;0.30;0.20;;;13.40;99.90;;;;;;5036032;28;20181;-67
2021/11/02 15:23:40;;;;;;;0.30;0.10;;;13.20;1.00;;;;;;5035981;28;20217;-67
2021/11/02 15:26:06;;;;;;;0.30;0.20;;;13.30;99.90;;;;;;5018701;28;20264;-67
2021/11/02 15:28:43;;;;;;;0.30;0.10;;;13.20;99.90;;;;;;5035873;28;20229;-67
2021/11/02 15:31:08;;;;;;;0.40;0.40;;;13.00;1.00;;;;;;5036031;28;20518;-68
2021/11/02 15:33:34;;;;;;;0.30;0.20;;;13.10;1.00;;;;;;5035788;28;20231;-70
2021/11/02 15:36:18;;;;;;;0.30;0.20;;;13.20;99.90;;;;;;5032990;28;20193;-68
2021/11/02 15:39:04;;;;;;;0.30;0.20;;;13.10;1.00;;;;;;5028746;28;20472;-68
2021/11/02 15:41:31;;;;;;;0.30;0.10;;;13.00;1.00;;;;;;5033855;28;20589;-67
2021/11/02 15:44:06;;;;;;;0.30;0.20;;;13.00;1.00;;;;;;5034283;28;20178;-67
2021/11/02 15:46:37;;;;;;;0.30;0.20;;;13.10;1.00;;;;;;5016355;28;20608;-67
2021/11/02 15:49:05;;;;;;;0.30;0.20;;;12.90;1.00;;;;;;5003920;28;20224;-67
2021/11/02 15:51:34;;;;;;;0.30;0.20;;;12.80;1.00;;;;;;5027668;28;20220;-67
2021/11/02 15:54:06;;;;;;;0.30;0.20;;;12.80;18.50;;;;;;5032922;28;20765;-70
2021/11/02 15:56:31;;;;;;;0.30;0.20;;;12.70;99.90;;;;;;5029673;28;20197;-71
2021/11/02 15:59:02;;;;;;;0.30;0.20;;;12.50;99.90;;;;;;5008808;28;20201;-75
2021/11/02 16:01:47;;;;;;;0.30;0.20;;;12.50;99.90;;;;;;5030710;28;20223;-74
2021/11/02 16:04:17;;;;;;;0.30;0.20;;;12.40;99.90;;;;;;5035452;28;20188;-74
2021/11/02 16:07:04;;;;;;;0.30;0.20;;;12.60;99.90;;;;;;5035339;28;20208;-72
2021/11/02 16:09:51;;;;;;;0.30;0.20;;;12.70;99.90;;;;;;5033789;28;20182;-69
2021/11/02 16:12:22;;;;;;;0.30;0.20;;;12.70;99.90;;;;;;5034503;28;20629;-69
2021/11/02 16:15:19;;;;;;;0.30;0.10;;;12.70;99.90;;;;;;5033398;28;20197;-70
2021/11/02 16:17:48;;;;;;;0.30;0.20;;;12.70;99.90;;;;;;5035037;28;20220;-70
2021/11/02 16:20:36;;;;;;;0.30;0.20;;;12.50;99.90;;;;;;5034845;28;20179;-73
2021/11/02 16:23:11;;;;;;;0.30;0.17;;;12.40;99.90;;;;;;5033740;28;20189;-72
2021/11/02 16:25:40;;;;;;;0.30;0.10;;;12.30;1.00;;;;;;5034932;28;20192;-73
2021/11/02 16:28:15;;;;;;;0.40;0.20;;;12.10;1.00;;;;;;5029801;28;20197;-71
2021/11/02 16:30:45;;;;;;;0.30;0.20;;;12.00;1.00;;;;;;5032158;28;20213;-71
2021/11/02 16:33:11;;;;;;;0.30;0.20;;;11.90;1.00;;;;;;5025022;28;20185;-72
2021/11/02 16:35:42;;;;;;;0.40;0.40;;;11.90;1.00;;;;;;5033961;28;20181;-69
2021/11/02 16:38:27;;;;;;;0.30;0.10;;;11.80;1.00;;;;;;5034093;28;20198;-71
2021/11/02 16:40:58;;;;;;;0.30;0.20;;;11.90;1.00;;;;;;5034509;28;20326;-69
2021/11/02 16:43:38;;;;;;;0.30;0.20;;;12.00;1.00;;;;;;5034039;28;20300;-75
2021/11/02 16:46:06;;;;;;;0.30;0.20;;;11.90;1.00;;;;;;5022512;28;20239;-67
2021/11/02 16:48:42;;;;;;;0.30;0.20;;;11.80;1.00;;;;;;5010533;28;20217;-67
2021/11/02 16:51:10;;;;;;;0.30;0.10;;;11.90;1.00;;;;;;5021509;28;20177;-67
2021/11/02 16:53:36;;;;;;;0.30;0.20;;;11.60;1.00;;;;;;5034459;28;20268;-67
2021/11/02 16:56:24;;;;;;;0.30;0.20;;;11.60;1.00;;;;;;5033964;28;20284;-67
2021/11/02 16:58:52;;;;;;;5.60;4.22;;;11.60;1.00;;;;;;5031381;28;20209;-67
2021/11/02 17:01:24;;;;;;;0.30;0.20;;;11.50;1.00;;;;;;5018117;28;20272;-67
2021/11/02 17:03:51;;;;;;;0.30;0.17;;;11.30;1.00;;;;;;5034432;28;20244;-67
2021/11/02 17:06:42;;;;;;;0.30;0.10;;;11.30;1.00;;;;;;5034355;28;20251;-67
2021/11/02 17:09:10;;;;;;;0.30;0.20;;;11.30;1.00;;;;;;5030981;28;20197;-67
2021/11/02 17:11:47;;;;;;;0.30;0.20;;;11.30;1.00;;;;;;5033862;28;20672;-67
2021/11/02 17:14:14;;;;;;;0.30;0.10;;;11.20;1.00;;;;;;5016563;28;20219;-69
2021/11/02 17:16:59;;;;;;;0.30;0.20;;;11.00;1.00;;;;;;5034559;28;20184;-69
2021/11/02 17:19:26;;;;;;;0.30;0.20;;;11.00;27.00;;;;;;5034038;28;20224;-70
2021/11/02 17:21:54;;;;;;;0.30;0.10;;;11.00;49.80;;;;;;5016228;28;20178;-70
2021/11/02 17:24:26;;;;;;;0.30;0.10;;;11.00;56.40;;;;;;5015689;28;20580;-70
2021/11/02 17:26:52;;;;;;;0.30;0.20;;;10.80;85.80;;;;;;5016563;28;20181;-70
2021/11/02 17:29:18;;;;;;;0.40;0.30;;;10.70;99.90;;;;;;5033593;28;20188;-68
2021/11/02 17:31:44;;;;;;;0.40;0.40;;;10.60;99.90;;;;;;5016423;28;20239;-67
2021/11/02 17:34:21;;;;;;;0.57;0.57;;;10.40;99.90;;;;;;5033778;28;20182;-67
2021/11/02 17:37:00;;;;;;;0.30;0.20;;;10.40;99.90;;;;;;5033533;28;20182;-67
2021/11/02 17:39:28;;;;;;;0.30;0.10;;;10.40;99.90;;;;;;5033363;28;20255;-67
2021/11/02 17:41:54;;;;;;;0.30;0.20;;;10.30;99.90;;;;;;5015915;28;20353;-70
2021/11/02 17:44:20;;;;;;;0.30;0.20;;;10.20;99.90;;;;;;5033763;28;20256;-67
2021/11/02 17:46:46;;;;;;;0.30;0.20;;;10.20;99.90;;;;;;5033680;28;20220;-70
2021/11/02 17:49:12;;;;;;;0.30;0.20;;;10.20;99.90;;;;;;5016350;28;20994;-67
2021/11/02 17:51:40;;;;;;;0.30;0.20;;;10.20;99.90;;;;;;5033162;28;20490;-67
2021/11/02 17:54:07;;;;;;;0.30;0.20;;;10.00;99.90;;;;;;5016242;28;20494;-67
2021/11/02 17:56:34;;;;;;;0.30;0.20;;;10.00;99.90;;;;;;5033959;28;20185;-69
2021/11/02 17:59:01;;;;;;;0.30;0.20;;;9.90;99.90;;;;;;5033279;28;20263;-69
2021/11/02 18:01:29;;;;;;;0.30;0.20;;;10.00;99.90;;;;;;5052870;28;20180;-67
2021/11/02 18:03:58;;;;;;;0.30;0.10;;;9.90;99.90;;;;;;5052994;28;20173;-67
2021/11/02 18:06:25;;;;;;;0.30;0.20;;;9.80;99.90;;;;;;5013534;28;20174;-67